sensor_id;sensor_type;location;lat;lon;timestamp;P1;durP1;ratioP1;P2;durP2;ratioP2
36303;SDS011;22335;49.800;8.596;2023-07-13T00:04:53;5.17;;;4.87;;
36303;SDS011;22335;49.800;8.596;2023-07-13T00:11:37;4.90;;;4.60;;
36303;SDS011;22335;49.800;8.596;2023-07-13T00:18:21;5.35;;;4.63;;
36303;SDS011;22335;49.800;8.596;2023-07-13T00:25:07;5.75;;;5.25;;
36303;SDS011;22335;49.800;8.596;2023-07-13T00:31:52;5.50;;;4.72;;
36303;SDS011;22335;49.800;8.596;2023-07-13T00:38:36;6.40;;;4.90;;
36303;SDS011;22335;49.800;8.596;2023-07-13T00:53:05;5.43;;;4.90;;
36303;SDS011;22335;49.800;8.596;2023-07-13T00:59:52;5.07;;;4.57;;
36303;SDS011;22335;49.800;8.596;2023-07-13T01:06:41;6.00;;;5.30;;
36303;SDS011;22335;49.800;8.596;2023-07-13T01:13:26;5.28;;;4.70;;
36303;SDS011;22335;49.800;8.596;2023-07-13T01:20:11;5.18;;;4.78;;
36303;SDS011;22335;49.800;8.596;2023-07-13T01:26:56;7.68;;;5.13;;
36303;SDS011;22335;49.800;8.596;2023-07-13T01:33:40;5.13;;;4.72;;
36303;SDS011;22335;49.800;8.596;2023-07-13T01:40:24;5.13;;;4.72;;
36303;SDS011;22335;49.800;8.596;2023-07-13T01:47:09;5.93;;;4.88;;
36303;SDS011;22335;49.800;8.596;2023-07-13T01:53:53;5.32;;;4.95;;
36303;SDS011;22335;49.800;8.596;2023-07-13T02:00:37;6.50;;;5.18;;
36303;SDS011;22335;49.800;8.596;2023-07-13T02:07:22;4.80;;;4.50;;
36303;SDS011;22335;49.800;8.596;2023-07-13T02:14:06;5.65;;;5.15;;
36303;SDS011;22335;49.800;8.596;2023-07-13T02:20:50;6.80;;;5.53;;
36303;SDS011;22335;49.800;8.596;2023-07-13T02:27:35;5.55;;;5.05;;
36303;SDS011;22335;49.800;8.596;2023-07-13T02:34:19;5.50;;;5.10;;
36303;SDS011;22335;49.800;8.596;2023-07-13T02:41:03;6.22;;;5.13;;
36303;SDS011;22335;49.800;8.596;2023-07-13T03:02:52;5.72;;;5.07;;
36303;SDS011;22335;49.800;8.596;2023-07-13T03:09:39;5.47;;;5.00;;
36303;SDS011;22335;49.800;8.596;2023-07-13T03:16:23;5.53;;;5.13;;
36303;SDS011;22335;49.800;8.596;2023-07-13T03:23:09;6.60;;;6.00;;
36303;SDS011;22335;49.800;8.596;2023-07-13T03:29:53;5.60;;;5.20;;
36303;SDS011;22335;49.800;8.596;2023-07-13T03:36:37;6.10;;;5.60;;
36303;SDS011;22335;49.800;8.596;2023-07-13T03:43:26;5.82;;;5.43;;
36303;SDS011;22335;49.800;8.596;2023-07-13T03:50:10;7.68;;;5.40;;
36303;SDS011;22335;49.800;8.596;2023-07-13T03:56:55;9.23;;;6.07;;
36303;SDS011;22335;49.800;8.596;2023-07-13T04:03:40;5.88;;;5.47;;
36303;SDS011;22335;49.800;8.596;2023-07-13T04:10:24;8.55;;;5.70;;
36303;SDS011;22335;49.800;8.596;2023-07-13T04:17:08;6.97;;;5.68;;
36303;SDS011;22335;49.800;8.596;2023-07-13T04:23:55;6.75;;;6.00;;
36303;SDS011;22335;49.800;8.596;2023-07-13T04:30:39;7.40;;;6.00;;
36303;SDS011;22335;49.800;8.596;2023-07-13T04:37:23;6.32;;;5.70;;
36303;SDS011;22335;49.800;8.596;2023-07-13T04:44:08;6.45;;;5.75;;
36303;SDS011;22335;49.800;8.596;2023-07-13T04:50:54;7.07;;;6.43;;
36303;SDS011;22335;49.800;8.596;2023-07-13T04:57:39;6.47;;;5.90;;
36303;SDS011;22335;49.800;8.596;2023-07-13T05:04:25;6.15;;;5.65;;
36303;SDS011;22335;49.800;8.596;2023-07-13T05:11:08;6.75;;;6.22;;
36303;SDS011;22335;49.800;8.596;2023-07-13T05:17:52;6.50;;;5.68;;
36303;SDS011;22335;49.800;8.596;2023-07-13T05:24:41;6.15;;;5.68;;
36303;SDS011;22335;49.800;8.596;2023-07-13T05:31:25;5.90;;;5.50;;
36303;SDS011;22335;49.800;8.596;2023-07-13T05:38:09;7.90;;;5.63;;
36303;SDS011;22335;49.800;8.596;2023-07-13T05:44:54;7.70;;;6.10;;
36303;SDS011;22335;49.800;8.596;2023-07-13T05:51:38;6.83;;;5.50;;
36303;SDS011;22335;49.800;8.596;2023-07-13T05:58:22;5.85;;;5.35;;
36303;SDS011;22335;49.800;8.596;2023-07-13T06:05:08;5.70;;;5.03;;
36303;SDS011;22335;49.800;8.596;2023-07-13T06:18:36;6.30;;;5.68;;
36303;SDS011;22335;49.800;8.596;2023-07-13T06:25:22;5.30;;;4.88;;
36303;SDS011;22335;49.800;8.596;2023-07-13T06:32:07;5.88;;;5.25;;
36303;SDS011;22335;49.800;8.596;2023-07-13T06:38:51;11.77;;;5.17;;
36303;SDS011;22335;49.800;8.596;2023-07-13T06:45:40;4.88;;;4.25;;
36303;SDS011;22335;49.800;8.596;2023-07-13T06:52:27;5.55;;;5.05;;
36303;SDS011;22335;49.800;8.596;2023-07-13T06:59:10;5.13;;;4.57;;
36303;SDS011;22335;49.800;8.596;2023-07-13T07:06:00;5.20;;;4.30;;
36303;SDS011;22335;49.800;8.596;2023-07-13T07:12:45;5.03;;;4.53;;
36303;SDS011;22335;49.800;8.596;2023-07-13T07:19:29;7.70;;;4.78;;
36303;SDS011;22335;49.800;8.596;2023-07-13T07:26:15;5.15;;;4.57;;
36303;SDS011;22335;49.800;8.596;2023-07-13T07:32:58;6.57;;;4.78;;
36303;SDS011;22335;49.800;8.596;2023-07-13T07:39:44;5.00;;;4.60;;
36303;SDS011;22335;49.800;8.596;2023-07-13T07:46:49;7.00;;;4.50;;
36303;SDS011;22335;49.800;8.596;2023-07-13T07:53:33;5.13;;;4.60;;
36303;SDS011;22335;49.800;8.596;2023-07-13T08:00:18;6.68;;;5.07;;
36303;SDS011;22335;49.800;8.596;2023-07-13T08:07:07;8.10;;;4.63;;
36303;SDS011;22335;49.800;8.596;2023-07-13T08:20:36;5.57;;;4.85;;
36303;SDS011;22335;49.800;8.596;2023-07-13T08:27:22;6.88;;;4.80;;
36303;SDS011;22335;49.800;8.596;2023-07-13T08:34:06;5.10;;;4.40;;
36303;SDS011;22335;49.800;8.596;2023-07-13T08:40:51;5.20;;;4.72;;
36303;SDS011;22335;49.800;8.596;2023-07-13T08:47:39;6.30;;;4.05;;
36303;SDS011;22335;49.800;8.596;2023-07-13T08:54:30;5.07;;;4.15;;
36303;SDS011;22335;49.800;8.596;2023-07-13T09:01:22;4.50;;;4.03;;
36303;SDS011;22335;49.800;8.596;2023-07-13T09:08:20;5.78;;;4.55;;
36303;SDS011;22335;49.800;8.596;2023-07-13T09:15:22;5.80;;;4.85;;
36303;SDS011;22335;49.800;8.596;2023-07-13T09:22:13;4.18;;;3.88;;
36303;SDS011;22335;49.800;8.596;2023-07-13T09:29:09;4.75;;;4.35;;
36303;SDS011;22335;49.800;8.596;2023-07-13T09:35:59;7.47;;;4.22;;
36303;SDS011;22335;49.800;8.596;2023-07-13T09:42:43;4.40;;;4.03;;
36303;SDS011;22335;49.800;8.596;2023-07-13T09:49:29;4.60;;;4.20;;
36303;SDS011;22335;49.800;8.596;2023-07-13T09:56:19;7.55;;;3.97;;
36303;SDS011;22335;49.800;8.596;2023-07-13T10:03:04;4.72;;;4.25;;
36303;SDS011;22335;49.800;8.596;2023-07-13T10:10:01;4.40;;;4.10;;
36303;SDS011;22335;49.800;8.596;2023-07-13T10:16:45;5.50;;;4.03;;
36303;SDS011;22335;49.800;8.596;2023-07-13T10:23:30;4.10;;;3.70;;
36303;SDS011;22335;49.800;8.596;2023-07-13T10:37:07;6.70;;;3.85;;
36303;SDS011;22335;49.800;8.596;2023-07-13T10:44:02;4.30;;;3.90;;
36303;SDS011;22335;49.800;8.596;2023-07-13T10:50:50;5.90;;;4.10;;
36303;SDS011;22335;49.800;8.596;2023-07-13T10:57:41;6.47;;;5.13;;
36303;SDS011;22335;49.800;8.596;2023-07-13T11:04:26;4.40;;;4.00;;
36303;SDS011;22335;49.800;8.596;2023-07-13T11:11:34;4.60;;;4.20;;
36303;SDS011;22335;49.800;8.596;2023-07-13T11:18:23;5.50;;;4.95;;
36303;SDS011;22335;49.800;8.596;2023-07-13T11:25:21;4.30;;;3.90;;
36303;SDS011;22335;49.800;8.596;2023-07-13T11:32:23;5.35;;;4.40;;
36303;SDS011;22335;49.800;8.596;2023-07-13T11:39:17;4.82;;;4.43;;
36303;SDS011;22335;49.800;8.596;2023-07-13T11:46:14;5.25;;;4.55;;
36303;SDS011;22335;49.800;8.596;2023-07-13T11:53:03;4.45;;;4.10;;
36303;SDS011;22335;49.800;8.596;2023-07-13T11:59:47;6.43;;;4.20;;
36303;SDS011;22335;49.800;8.596;2023-07-13T12:06:34;4.18;;;3.88;;
36303;SDS011;22335;49.800;8.596;2023-07-13T12:13:23;4.70;;;4.30;;
36303;SDS011;22335;49.800;8.596;2023-07-13T12:27:03;4.47;;;4.07;;
36303;SDS011;22335;49.800;8.596;2023-07-13T12:40:40;6.45;;;4.25;;
36303;SDS011;22335;49.800;8.596;2023-07-13T12:47:24;5.18;;;3.80;;
36303;SDS011;22335;49.800;8.596;2023-07-13T12:54:15;4.20;;;3.90;;
36303;SDS011;22335;49.800;8.596;2023-07-13T13:01:01;5.05;;;3.88;;
36303;SDS011;22335;49.800;8.596;2023-07-13T13:07:46;4.53;;;4.13;;
36303;SDS011;22335;49.800;8.596;2023-07-13T13:14:31;4.25;;;3.88;;
36303;SDS011;22335;49.800;8.596;2023-07-13T13:21:15;5.03;;;3.85;;
36303;SDS011;22335;49.800;8.596;2023-07-13T13:28:02;6.88;;;4.30;;
36303;SDS011;22335;49.800;8.596;2023-07-13T13:34:47;7.82;;;4.60;;
36303;SDS011;22335;49.800;8.596;2023-07-13T13:41:32;4.80;;;4.05;;
36303;SDS011;22335;49.800;8.596;2023-07-13T13:48:16;4.88;;;4.15;;
36303;SDS011;22335;49.800;8.596;2023-07-13T13:55:10;4.43;;;4.03;;
36303;SDS011;22335;49.800;8.596;2023-07-13T14:01:55;6.00;;;4.75;;
36303;SDS011;22335;49.800;8.596;2023-07-13T14:08:41;10.20;;;4.43;;
36303;SDS011;22335;49.800;8.596;2023-07-13T14:15:27;4.70;;;4.40;;
36303;SDS011;22335;49.800;8.596;2023-07-13T14:22:13;6.97;;;4.30;;
36303;SDS011;22335;49.800;8.596;2023-07-13T14:28:56;5.82;;;4.10;;
36303;SDS011;22335;49.800;8.596;2023-07-13T14:35:41;6.15;;;4.47;;
36303;SDS011;22335;49.800;8.596;2023-07-13T14:42:25;4.90;;;4.10;;
36303;SDS011;22335;49.800;8.596;2023-07-13T14:49:12;3.88;;;3.47;;
36303;SDS011;22335;49.800;8.596;2023-07-13T14:56:04;4.00;;;3.70;;
36303;SDS011;22335;49.800;8.596;2023-07-13T15:02:54;3.75;;;3.53;;
36303;SDS011;22335;49.800;8.596;2023-07-13T15:09:40;7.05;;;3.70;;
36303;SDS011;22335;49.800;8.596;2023-07-13T15:16:26;4.43;;;4.13;;
36303;SDS011;22335;49.800;8.596;2023-07-13T15:23:09;4.03;;;3.72;;
36303;SDS011;22335;49.800;8.596;2023-07-13T15:29:53;3.95;;;3.58;;
36303;SDS011;22335;49.800;8.596;2023-07-13T15:36:38;4.25;;;3.92;;
36303;SDS011;22335;49.800;8.596;2023-07-13T15:43:22;3.92;;;3.63;;
36303;SDS011;22335;49.800;8.596;2023-07-13T15:50:07;4.45;;;4.05;;
36303;SDS011;22335;49.800;8.596;2023-07-13T15:57:00;4.60;;;4.05;;
36303;SDS011;22335;49.800;8.596;2023-07-13T16:03:45;4.30;;;3.97;;
36303;SDS011;22335;49.800;8.596;2023-07-13T16:10:30;4.17;;;3.87;;
36303;SDS011;22335;49.800;8.596;2023-07-13T16:17:18;5.55;;;3.95;;
36303;SDS011;22335;49.800;8.596;2023-07-13T16:24:02;4.25;;;3.95;;
36303;SDS011;22335;49.800;8.596;2023-07-13T16:30:47;5.73;;;4.17;;
36303;SDS011;22335;49.800;8.596;2023-07-13T16:37:33;4.43;;;3.95;;
36303;SDS011;22335;49.800;8.596;2023-07-13T16:44:23;4.45;;;4.05;;
36303;SDS011;22335;49.800;8.596;2023-07-13T16:51:09;4.18;;;3.97;;
36303;SDS011;22335;49.800;8.596;2023-07-13T16:57:55;5.40;;;3.67;;
36303;SDS011;22335;49.800;8.596;2023-07-13T17:04:42;4.07;;;3.88;;
36303;SDS011;22335;49.800;8.596;2023-07-13T17:11:27;4.25;;;3.85;;
36303;SDS011;22335;49.800;8.596;2023-07-13T17:18:15;5.00;;;4.50;;
36303;SDS011;22335;49.800;8.596;2023-07-13T17:31:42;5.25;;;4.22;;
36303;SDS011;22335;49.800;8.596;2023-07-13T17:38:30;4.10;;;3.90;;
36303;SDS011;22335;49.800;8.596;2023-07-13T17:45:21;4.32;;;3.92;;
36303;SDS011;22335;49.800;8.596;2023-07-13T17:52:07;4.13;;;3.75;;
36303;SDS011;22335;49.800;8.596;2023-07-13T17:58:53;5.60;;;4.57;;
36303;SDS011;22335;49.800;8.596;2023-07-13T18:05:36;5.15;;;4.13;;
36303;SDS011;22335;49.800;8.596;2023-07-13T18:12:20;4.47;;;3.85;;
36303;SDS011;22335;49.800;8.596;2023-07-13T18:19:06;7.80;;;3.92;;
36303;SDS011;22335;49.800;8.596;2023-07-13T18:26:08;4.30;;;3.90;;
36303;SDS011;22335;49.800;8.596;2023-07-13T18:32:54;4.20;;;3.97;;
36303;SDS011;22335;49.800;8.596;2023-07-13T18:39:39;4.32;;;3.90;;
36303;SDS011;22335;49.800;8.596;2023-07-13T18:46:25;4.50;;;4.10;;
36303;SDS011;22335;49.800;8.596;2023-07-13T18:53:13;4.57;;;3.90;;
36303;SDS011;22335;49.800;8.596;2023-07-13T19:00:00;5.05;;;3.88;;
36303;SDS011;22335;49.800;8.596;2023-07-13T19:06:45;4.10;;;3.80;;
36303;SDS011;22335;49.800;8.596;2023-07-13T19:13:30;4.20;;;3.90;;
36303;SDS011;22335;49.800;8.596;2023-07-13T19:20:19;5.13;;;3.65;;
36303;SDS011;22335;49.800;8.596;2023-07-13T19:27:08;10.68;;;4.65;;
36303;SDS011;22335;49.800;8.596;2023-07-13T19:33:53;17.92;;;5.47;;
36303;SDS011;22335;49.800;8.596;2023-07-13T19:40:38;21.55;;;5.40;;
36303;SDS011;22335;49.800;8.596;2023-07-13T19:47:21;20.35;;;5.00;;
36303;SDS011;22335;49.800;8.596;2023-07-13T19:54:09;13.20;;;4.55;;
36303;SDS011;22335;49.800;8.596;2023-07-13T20:01:02;11.25;;;4.40;;
36303;SDS011;22335;49.800;8.596;2023-07-13T20:07:46;6.72;;;4.20;;
36303;SDS011;22335;49.800;8.596;2023-07-13T20:14:37;16.10;;;5.13;;
36303;SDS011;22335;49.800;8.596;2023-07-13T20:21:23;8.38;;;4.80;;
36303;SDS011;22335;49.800;8.596;2023-07-13T20:28:10;11.75;;;4.65;;
36303;SDS011;22335;49.800;8.596;2023-07-13T20:34:53;5.63;;;4.50;;
36303;SDS011;22335;49.800;8.596;2023-07-13T20:41:39;6.03;;;4.57;;
36303;SDS011;22335;49.800;8.596;2023-07-13T20:48:27;7.18;;;4.40;;
36303;SDS011;22335;49.800;8.596;2023-07-13T20:55:18;5.13;;;4.25;;
36303;SDS011;22335;49.800;8.596;2023-07-13T21:02:10;4.78;;;4.47;;
36303;SDS011;22335;49.800;8.596;2023-07-13T21:09:13;6.13;;;5.00;;
36303;SDS011;22335;49.800;8.596;2023-07-13T21:16:01;5.30;;;4.80;;
36303;SDS011;22335;49.800;8.596;2023-07-13T21:22:59;6.47;;;5.10;;
36303;SDS011;22335;49.800;8.596;2023-07-13T21:29:43;5.18;;;4.72;;
36303;SDS011;22335;49.800;8.596;2023-07-13T21:36:28;6.43;;;4.63;;
36303;SDS011;22335;49.800;8.596;2023-07-13T21:43:14;5.57;;;4.83;;
36303;SDS011;22335;49.800;8.596;2023-07-13T21:49:59;5.35;;;5.00;;
36303;SDS011;22335;49.800;8.596;2023-07-13T21:56:43;5.20;;;4.80;;
36303;SDS011;22335;49.800;8.596;2023-07-13T22:03:28;5.28;;;4.88;;
36303;SDS011;22335;49.800;8.596;2023-07-13T22:10:17;5.13;;;4.72;;
36303;SDS011;22335;49.800;8.596;2023-07-13T22:17:02;10.25;;;5.18;;
36303;SDS011;22335;49.800;8.596;2023-07-13T22:23:49;6.97;;;4.90;;
36303;SDS011;22335;49.800;8.596;2023-07-13T22:30:33;8.00;;;5.00;;
36303;SDS011;22335;49.800;8.596;2023-07-13T22:37:17;5.78;;;4.97;;
36303;SDS011;22335;49.800;8.596;2023-07-13T22:44:02;5.28;;;4.80;;
36303;SDS011;22335;49.800;8.596;2023-07-13T22:50:48;5.55;;;5.03;;
36303;SDS011;22335;49.800;8.596;2023-07-13T22:57:32;5.47;;;5.00;;
36303;SDS011;22335;49.800;8.596;2023-07-13T23:04:20;5.78;;;5.25;;
36303;SDS011;22335;49.800;8.596;2023-07-13T23:11:09;5.53;;;5.10;;
36303;SDS011;22335;49.800;8.596;2023-07-13T23:17:54;6.03;;;5.10;;
36303;SDS011;22335;49.800;8.596;2023-07-13T23:24:39;5.65;;;4.97;;
36303;SDS011;22335;49.800;8.596;2023-07-13T23:31:24;5.07;;;4.72;;
36303;SDS011;22335;49.800;8.596;2023-07-13T23:38:12;7.50;;;4.90;;
36303;SDS011;22335;49.800;8.596;2023-07-13T23:44:57;5.55;;;4.47;;
36303;SDS011;22335;49.800;8.596;2023-07-13T23:51:40;5.57;;;5.07;;
36303;SDS011;22335;49.800;8.596;2023-07-13T23:58:24;5.40;;;5.00;;
